Time;durP1;ratioP1;P1;durP2;ratioP2;P2;SDS_P1;SDS_P2;PMS_P1;PMS_P2;Temp;Humidity;BMP_temperature;BMP_pressure;BME280_temperature;BME280_humidity;BME280_pressure;Samples;Min_cycle;Max_cycle;Signal;HPM_P1;HPM_P2
2023/07/07 00:01:36;;;;;;;4.10;1.55;;;13.50;99.90;;;11.96;100.00;97952.78;5041559;28;20091;-70
2023/07/07 00:04:09;;;;;;;4.05;1.58;;;13.30;99.90;;;12.06;100.00;97954.06;5044232;28;20051;-70
2023/07/07 00:06:36;;;;;;;3.83;1.80;;;13.40;99.90;;;11.93;100.00;97955.53;5044916;28;20505;-70
2023/07/07 00:09:32;;;;;;;4.68;1.58;;;13.30;99.90;;;11.79;100.00;97950.88;5045881;28;20048;-70
2023/07/07 00:12:30;;;;;;;3.95;1.48;;;13.20;99.90;;;11.59;100.00;97958.63;5040848;28;20118;-71
2023/07/07 00:15:18;;;;;;;3.67;1.50;;;13.10;99.90;;;11.34;100.00;97961.38;5044188;28;20057;-71
2023/07/07 00:17:50;;;;;;;6.93;1.85;;;12.90;99.90;;;11.48;100.00;97961.66;5041281;28;20087;-70
2023/07/07 00:20:21;;;;;;;3.80;1.65;;;12.90;99.90;;;11.38;100.00;97961.19;5044497;28;20045;-70
2023/07/07 00:23:12;;;;;;;4.60;1.95;;;12.80;99.90;;;11.48;100.00;97964.25;5032198;28;20556;-70
2023/07/07 00:26:09;;;;;;;2.60;1.38;;;12.80;99.90;;;11.55;100.00;97975.25;5045123;28;20482;-69
2023/07/07 00:28:48;;;;;;;3.45;1.33;;;12.80;99.90;;;11.68;100.00;97974.72;5046271;28;20487;-70
2023/07/07 00:31:21;;;;;;;5.72;1.60;;;12.90;99.90;;;11.40;100.00;97974.09;5041160;28;20060;-70
2023/07/07 00:33:52;;;;;;;3.67;1.67;;;12.80;99.90;;;11.31;100.00;97972.72;5044689;28;20137;-70
2023/07/07 00:36:23;;;;;;;3.55;1.98;;;12.70;99.90;;;11.18;100.00;97980.16;5040332;28;20099;-70
2023/07/07 00:39:10;;;;;;;4.03;1.60;;;12.70;99.90;;;11.32;100.00;97986.56;4986270;28;20066;-70
2023/07/07 00:41:43;;;;;;;6.25;1.42;;;12.70;99.90;;;11.26;100.00;97983.28;4977731;28;20246;-70
2023/07/07 00:44:11;;;;;;;2.78;1.45;;;12.60;99.90;;;11.23;100.00;97980.81;4978284;28;20082;-70
2023/07/07 00:46:58;;;;;;;3.92;1.73;;;12.60;99.90;;;10.99;100.00;97981.75;5012980;28;20048;-70
2023/07/07 00:49:58;;;;;;;3.40;1.40;;;12.50;99.90;;;11.06;100.00;97991.00;5037300;28;20414;-71
2023/07/07 00:52:32;;;;;;;4.50;2.10;;;12.40;99.90;;;11.05;100.00;97992.75;5038513;28;20172;-70
2023/07/07 00:55:20;;;;;;;7.68;1.95;;;12.40;99.90;;;11.11;100.00;97994.28;5046188;28;20322;-70
2023/07/07 00:57:48;;;;;;;4.88;1.83;;;12.40;99.90;;;11.04;100.00;97995.44;5043927;28;20072;-70
2023/07/07 01:00:21;;;;;;;5.57;1.98;;;12.30;99.90;;;11.23;100.00;97977.38;5041178;28;20072;-71
2023/07/07 01:02:58;;;;;;;6.60;2.15;;;12.40;99.90;;;11.27;100.00;97985.00;5041039;28;20544;-71
2023/07/07 01:05:58;;;;;;;5.05;1.63;;;12.50;99.90;;;11.22;100.00;97978.28;5037606;28;20083;-70
2023/07/07 01:11:59;;;;;;;4.63;1.48;;;12.40;99.90;;;10.84;100.00;97978.84;4985781;28;20077;-70
2023/07/07 01:14:31;;;;;;;4.55;1.65;;;12.40;99.90;;;10.70;100.00;97982.81;4987015;28;20094;-70
2023/07/07 01:17:45;;;;;;;4.35;1.85;;;12.30;99.90;;;10.83;100.00;97987.53;4989623;28;20046;-70
2023/07/07 01:20:41;;;;;;;4.30;1.77;;;12.20;99.90;;;10.94;100.00;97989.72;5005885;28;20050;-70
2023/07/07 01:23:58;;;;;;;3.72;1.58;;;12.20;99.90;;;10.57;100.00;97991.06;5005601;28;20050;-68
2023/07/07 01:26:55;;;;;;;4.45;1.42;;;12.10;99.90;;;10.43;100.00;97998.50;5024058;28;20053;-69
2023/07/07 01:30:29;;;;;;;3.60;1.52;;;12.00;99.90;;;10.47;100.00;98000.09;5043833;28;20091;-69
2023/07/07 01:33:23;;;;;;;4.82;1.85;;;11.90;99.90;;;10.46;100.00;97998.38;5044141;28;20463;-69
2023/07/07 01:36:41;;;;;;;4.90;1.40;;;11.90;99.90;;;10.60;100.00;98000.50;4948638;28;20215;-68
2023/07/07 01:39:42;;;;;;;5.30;2.08;;;11.90;99.90;;;10.56;100.00;98001.50;4965353;28;20141;-68
2023/07/07 01:43:04;;;;;;;5.65;1.70;;;11.80;99.90;;;10.62;100.00;98009.91;4904033;28;20106;-68
2023/07/07 01:50:43;;;;;;;5.32;1.77;;;11.90;99.90;;;10.70;100.00;97995.81;4885297;29;20104;-69
2023/07/07 01:53:51;;;;;;;3.90;1.55;;;11.90;99.90;;;10.43;100.00;97999.34;4922850;28;20062;-68
2023/07/07 01:56:48;;;;;;;4.15;1.58;;;11.90;99.90;;;10.46;100.00;97999.22;4987167;28;20885;-71
2023/07/07 01:59:23;;;;;;;4.45;1.55;;;11.80;99.90;;;10.53;100.00;97999.88;4980939;28;20050;-68
2023/07/07 02:02:01;;;;;;;4.82;1.95;;;11.80;99.90;;;10.40;100.00;98011.56;4969714;28;20098;-69
2023/07/07 02:04:34;;;;;;;4.50;1.90;;;11.80;99.90;;;10.43;100.00;98006.28;4974037;28;20134;-68
2023/07/07 02:07:08;;;;;;;5.38;2.08;;;11.80;99.90;;;10.40;100.00;98012.44;4990097;28;20496;-71
2023/07/07 02:10:14;;;;;;;3.03;1.48;;;11.80;99.90;;;10.41;100.00;98000.31;5009497;28;20052;-69
2023/07/07 02:13:14;;;;;;;3.38;1.55;;;11.70;99.90;;;10.36;100.00;97997.88;5048367;28;20519;-68
2023/07/07 02:15:51;;;;;;;4.10;1.77;;;11.70;99.90;;;10.30;100.00;98005.03;5053591;28;20088;-69
2023/07/07 02:18:37;;;;;;;4.40;1.88;;;11.70;99.90;;;10.29;100.00;98011.13;5014394;28;20058;-68
2023/07/07 02:21:06;;;;;;;2.72;1.60;;;11.70;99.90;;;10.15;100.00;98017.59;5070720;28;20048;-69
2023/07/07 02:23:53;;;;;;;4.25;1.73;;;11.60;99.90;;;10.10;100.00;98019.47;5056126;28;20040;-68
2023/07/07 02:26:20;;;;;;;4.97;1.92;;;11.50;99.90;;;9.93;100.00;98019.22;5069813;28;20147;-69
2023/07/07 02:28:56;;;;;;;5.43;2.50;;;11.40;99.90;;;9.82;100.00;98019.53;5070569;28;20040;-69
2023/07/07 02:31:52;;;;;;;2.78;1.60;;;11.30;99.90;;;9.80;100.00;98017.00;5071027;28;20711;-69
2023/07/07 02:34:22;;;;;;;3.17;1.58;;;11.20;99.90;;;9.80;100.00;98021.34;5069478;28;20098;-69
2023/07/07 02:36:52;;;;;;;3.90;1.70;;;11.20;99.90;;;9.87;100.00;98029.78;5054993;28;20076;-71
2023/07/07 02:39:50;;;;;;;6.22;1.92;;;11.30;99.90;;;9.80;100.00;98036.88;5069855;28;20089;-71
2023/07/07 02:42:23;;;;;;;6.18;2.00;;;11.20;99.90;;;9.94;100.00;98031.25;5052673;28;20044;-70
2023/07/07 02:45:11;;;;;;;4.10;1.65;;;11.30;99.90;;;9.96;100.00;98043.28;5046945;28;20131;-71
2023/07/07 02:47:38;;;;;;;5.15;2.08;;;11.30;99.90;;;9.93;100.00;98043.38;5048347;28;20512;-71
2023/07/07 02:50:09;;;;;;;5.00;1.90;;;11.30;99.90;;;9.88;100.00;98045.28;5050816;28;20390;-68
2023/07/07 02:52:42;;;;;;;4.50;2.00;;;11.30;99.90;;;9.64;100.00;98039.97;5051790;28;20053;-70
2023/07/07 02:55:49;;;;;;;;;;;11.20;99.90;;;9.55;100.00;98036.81;5051149;28;20037;-70
2023/07/07 02:58:16;;;;;;;3.60;1.55;;;11.10;99.90;;;9.67;100.00;98048.53;5047587;28;19925;-71
2023/07/07 03:00:48;;;;;;;4.50;1.80;;;11.00;99.90;;;9.59;100.00;98052.22;5047492;28;20128;-71
2023/07/07 03:03:26;;;;;;;6.28;1.90;;;11.00;99.90;;;9.60;100.00;98048.75;5047569;28;20045;-71
2023/07/07 03:06:59;;;;;;;7.20;2.15;;;11.00;99.90;;;9.42;100.00;98044.13;5043003;28;20542;-71
2023/07/07 03:09:33;;;;;;;7.70;1.80;;;10.90;99.90;;;9.61;100.00;98044.41;4986564;28;20062;-71
2023/07/07 03:12:09;;;;;;;8.18;1.80;;;10.80;99.90;;;9.63;100.00;98050.41;4986666;28;20161;-71
2023/07/07 03:15:12;;;;;;;6.05;2.00;;;10.90;99.90;;;9.59;100.00;98049.63;4986864;28;20145;-70
2023/07/07 03:17:39;;;;;;;4.40;1.83;;;10.90;99.90;;;9.46;100.00;98045.72;4989166;28;20113;-71
2023/07/07 03:20:26;;;;;;;3.67;1.95;;;10.80;99.90;;;9.37;100.00;98043.41;5028133;28;20053;-71
2023/07/07 03:23:03;;;;;;;5.60;2.15;;;10.80;99.90;;;9.40;100.00;98048.53;5047614;28;20091;-71
2023/07/07 03:25:36;;;;;;;4.95;2.22;;;10.80;99.90;;;9.50;100.00;98049.91;5043064;28;20578;-71
2023/07/07 03:28:28;;;;;;;;;;;10.80;99.90;;;9.38;100.00;98039.94;5049214;28;20049;-70
2023/07/07 03:31:25;;;;;;;3.28;1.77;;;10.80;99.90;;;9.35;100.00;98038.28;5045023;28;20675;-70
2023/07/07 03:33:59;;;;;;;3.95;1.77;;;10.80;99.90;;;9.35;100.00;98043.47;5044926;28;20131;-71
2023/07/07 03:36:49;;;;;;;3.97;1.92;;;10.70;99.90;;;9.53;100.00;98036.00;5039136;28;20530;-71
2023/07/07 03:39:35;;;;;;;4.68;2.45;;;10.80;99.90;;;9.46;100.00;98039.69;5057883;28;20470;-71
2023/07/07 03:42:03;;;;;;;5.00;2.30;;;10.80;99.90;;;9.36;100.00;98036.53;5045121;28;20149;-71
2023/07/07 03:44:48;;;;;;;4.38;1.63;;;10.80;99.90;;;9.41;100.00;98038.09;5038981;28;20045;-72
2023/07/07 03:47:37;;;;;;;7.40;2.28;;;10.80;99.90;;;9.35;100.00;98051.25;5044297;28;20522;-71
2023/07/07 03:50:32;;;;;;;5.32;2.25;;;10.70;99.90;;;9.40;100.00;98057.13;5044266;28;20224;-71
2023/07/07 03:53:02;;;;;;;5.05;1.75;;;10.70;99.90;;;9.42;100.00;98057.94;5045425;28;20139;-71
2023/07/07 03:56:32;;;;;;;5.78;1.88;;;10.70;99.90;;;9.15;100.00;98056.16;5047149;28;20068;-71
2023/07/07 03:59:05;;;;;;;5.22;2.40;;;10.70;99.90;;;9.16;100.00;98057.84;5048799;28;20048;-71
2023/07/07 04:01:35;;;;;;;6.20;1.95;;;10.50;99.90;;;9.29;100.00;98059.19;5042896;28;20045;-71
2023/07/07 04:04:12;;;;;;;4.60;2.00;;;10.60;99.90;;;9.48;100.00;98061.22;5044428;28;20041;-71
2023/07/07 04:06:39;;;;;;;6.55;1.80;;;10.60;99.90;;;9.56;100.00;98057.50;5059993;28;20053;-71
2023/07/07 04:10:18;;;;;;;5.75;1.85;;;10.70;99.90;;;9.57;100.00;98051.41;5039638;28;20410;-71
2023/07/07 04:13:15;;;;;;;4.70;2.13;;;10.70;99.90;;;9.45;100.00;98049.22;4949629;28;20479;-70
2023/07/07 04:16:14;;;;;;;5.07;1.98;;;10.70;99.90;;;9.57;100.00;98051.41;4964463;28;20130;-71
2023/07/07 04:19:21;;;;;;;6.22;2.42;;;10.80;99.90;;;9.75;100.00;98059.53;5007278;28;20162;-70
2023/07/07 04:21:50;;;;;;;3.75;2.15;;;10.80;99.90;;;9.73;100.00;98062.16;5004652;28;20133;-71
2023/07/07 04:24:27;;;;;;;5.38;1.95;;;10.90;99.90;;;9.86;100.00;98065.22;4986858;28;20053;-71
2023/07/07 04:27:40;;;;;;;5.53;1.98;;;11.00;99.90;;;9.78;100.00;98060.28;5004474;28;20505;-71
2023/07/07 04:30:21;;;;;;;4.15;1.77;;;11.00;99.90;;;9.76;100.00;98054.31;4947666;29;20789;-71
2023/07/07 04:33:52;;;;;;;;;;;11.00;99.90;;;10.01;100.00;98054.38;4962914;28;20054;-71
2023/07/07 04:36:54;;;;;;;3.63;1.80;;;11.00;99.90;;;10.13;100.00;98052.28;4932536;29;19926;-71
2023/07/07 04:39:30;;;;;;;5.32;2.30;;;11.20;99.90;;;10.18;100.00;98063.34;4933070;29;20087;-71
2023/07/07 04:42:36;;;;;;;4.20;1.98;;;11.20;99.90;;;10.45;100.00;98053.81;4931073;29;20039;-71
2023/07/07 04:45:07;;;;;;;3.30;1.67;;;11.30;99.90;;;10.58;100.00;98060.28;4916567;29;20051;-71
2023/07/07 04:47:35;;;;;;;4.43;1.95;;;11.50;99.90;;;10.61;100.00;98047.16;4931106;29;20175;-71
2023/07/07 04:50:33;;;;;;;7.03;1.90;;;11.60;99.90;;;10.62;100.00;98054.03;4932248;29;20057;-71
2023/07/07 04:53:25;;;;;;;4.10;1.83;;;11.70;99.90;;;10.75;100.00;98054.47;4913597;29;20151;-71
2023/07/07 04:56:21;;;;;;;6.60;1.90;;;11.70;99.90;;;10.97;100.00;98051.09;4923249;28;20055;-70
2023/07/07 04:58:56;;;;;;;5.07;2.05;;;11.70;99.90;;;11.16;100.00;98054.72;4950849;28;20150;-71
2023/07/07 05:01:29;;;;;;;5.07;1.52;;;11.90;99.90;;;11.33;100.00;98051.47;4964201;28;20133;-69
2023/07/07 05:04:26;;;;;;;5.57;1.42;;;12.00;99.90;;;11.52;100.00;98049.88;4951032;28;20051;-70
2023/07/07 05:07:06;;;;;;;6.35;1.70;;;12.20;99.90;;;11.62;100.00;98045.16;5006692;28;20037;-71
2023/07/07 05:09:39;;;;;;;7.05;1.77;;;12.40;99.90;;;11.71;100.00;98051.75;5042619;28;20045;-70
2023/07/07 05:12:13;;;;;;;6.57;2.22;;;12.50;99.90;;;11.87;100.00;98050.25;5045560;28;20045;-70
2023/07/07 05:14:58;;;;;;;4.63;2.25;;;12.60;99.90;;;12.06;100.00;98044.28;5044069;28;20067;-71
2023/07/07 05:17:25;;;;;;;5.30;1.40;;;12.80;99.90;;;12.41;100.00;98042.84;5044262;28;20136;-71
2023/07/07 05:20:16;;;;;;;4.07;1.90;;;12.90;99.90;;;12.34;100.00;98037.03;5041010;28;20052;-70
2023/07/07 05:23:16;;;;;;;4.65;1.75;;;13.10;99.90;;;12.65;100.00;98050.50;5044341;28;20440;-70
2023/07/07 05:26:12;;;;;;;3.78;1.60;;;13.20;99.90;;;12.88;100.00;98034.69;5044107;28;20087;-71
2023/07/07 05:28:51;;;;;;;4.63;1.70;;;13.40;99.90;;;13.11;100.00;98031.09;5040994;28;20080;-71
2023/07/07 05:31:32;;;;;;;5.43;1.85;;;13.70;99.90;;;13.33;100.00;98017.91;5044786;28;20136;-71
2023/07/07 05:34:16;;;;;;;4.38;1.90;;;13.80;99.90;;;13.59;100.00;98036.69;5032564;28;20132;-71
2023/07/07 05:36:43;;;;;;;3.88;1.90;;;14.00;99.90;;;13.86;100.00;98037.13;5041810;28;20047;-71
2023/07/07 05:39:41;;;;;;;6.93;1.98;;;14.20;99.90;;;14.06;100.00;98035.34;5045648;28;20103;-71
2023/07/07 05:43:05;;;;;;;4.35;1.73;;;14.50;99.90;;;14.49;100.00;98036.63;5042587;28;20071;-71
2023/07/07 05:45:33;;;;;;;3.72;1.30;;;14.70;99.90;;;14.77;100.00;98023.00;5025441;28;20052;-71
2023/07/07 05:48:10;;;;;;;4.20;1.55;;;15.00;99.90;;;14.90;100.00;98011.94;5044227;28;20091;-71
2023/07/07 05:50:47;;;;;;;4.32;1.27;;;15.20;99.90;;;15.22;100.00;98013.63;5044261;28;20107;-70
2023/07/07 05:53:47;;;;;;;5.20;1.65;;;15.40;99.90;;;15.42;100.00;98009.94;5042019;28;20073;-71
2023/07/07 05:56:25;;;;;;;4.55;1.67;;;15.60;99.90;;;15.77;100.00;97999.28;5045447;28;20110;-71
2023/07/07 05:59:24;;;;;;;;;;;15.90;99.90;;;15.90;100.00;97991.59;4956246;28;20133;-71
2023/07/07 06:01:54;;;;;;;;;;;16.10;99.90;;;15.99;100.00;97987.59;5000027;28;19924;-68
2023/07/07 06:04:24;;;;;;;4.82;1.70;;;16.30;99.90;;;16.36;100.00;97980.19;5041100;28;19944;-69
2023/07/07 06:07:39;;;;;;;3.97;1.55;;;16.50;99.90;;;16.48;100.00;97975.03;5041032;28;20045;-69
2023/07/07 06:10:24;;;;;;;4.18;1.80;;;16.70;99.90;;;16.66;100.00;97967.00;5042278;28;20148;-68
2023/07/07 06:13:58;;;;;;;3.85;1.60;;;17.00;99.90;;;16.89;100.00;97963.00;5037258;28;20529;-68
2023/07/07 06:16:31;;;;;;;5.45;2.00;;;17.20;99.90;;;17.08;100.00;97966.19;5042629;28;20044;-68
2023/07/07 06:19:04;;;;;;;5.35;1.67;;;17.40;99.90;;;17.20;100.00;97966.34;5040719;28;20045;-69
2023/07/07 06:21:34;;;;;;;5.38;1.70;;;17.50;99.90;;;17.42;100.00;97963.19;5042668;28;20072;-69
2023/07/07 06:24:02;;;;;;;4.15;1.67;;;17.70;99.90;;;17.65;100.00;97964.31;5038628;28;20128;-69
2023/07/07 06:26:41;;;;;;;3.90;1.70;;;17.90;99.90;;;17.87;100.00;97964.63;5040518;28;20478;-69
2023/07/07 06:29:14;;;;;;;4.88;1.75;;;18.10;99.90;;;17.90;100.00;97971.44;5041205;28;20129;-69
2023/07/07 06:35:56;;;;;;;5.10;1.50;;;18.50;99.90;;;18.37;100.00;97957.75;4934551;28;20457;-69
2023/07/07 06:38:56;;;;;;;4.30;1.67;;;18.70;99.90;;;18.58;100.00;97965.13;4979861;28;20061;-68
2023/07/07 06:41:29;;;;;;;3.30;1.50;;;18.90;99.90;;;18.83;100.00;97966.06;5036749;28;20049;-69
2023/07/07 06:44:17;;;;;;;4.55;1.70;;;19.10;99.90;;;18.88;100.00;97958.69;5044609;28;20053;-69
2023/07/07 06:47:06;;;;;;;3.33;1.52;;;19.20;99.90;;;19.24;100.00;97963.13;5049063;28;20439;-68
2023/07/07 06:49:42;;;;;;;3.97;2.08;;;19.50;99.90;;;19.36;100.00;97964.03;5044767;28;20060;-69
2023/07/07 06:52:18;;;;;;;4.28;1.83;;;19.70;99.90;;;19.52;100.00;97963.75;5047127;28;20075;-69
2023/07/07 06:54:48;;;;;;;5.18;1.50;;;19.90;99.90;;;19.59;100.00;97965.84;5043615;28;20071;-69
2023/07/07 06:57:18;;;;;;;5.50;2.03;;;20.00;99.90;;;19.94;100.00;97972.97;5041702;28;20505;-68
2023/07/07 07:00:29;;;;;;;5.50;1.80;;;20.20;99.90;;;19.92;100.00;97961.72;5045928;28;20467;-68
2023/07/07 07:03:05;;;;;;;4.60;1.88;;;20.30;99.90;;;19.92;100.00;97966.97;5017210;28;20130;-69
2023/07/07 07:05:40;;;;;;;3.83;1.40;;;20.50;99.90;;;20.13;100.00;97963.69;5047234;28;20136;-68
2023/07/07 07:09:04;;;;;;;5.88;1.70;;;20.60;99.90;;;20.05;100.00;97970.38;5045151;28;20045;-68
2023/07/07 07:11:40;;;;;;;5.57;1.80;;;20.60;99.90;;;20.02;100.00;97965.31;5044563;28;20437;-69
2023/07/07 07:14:07;;;;;;;5.65;1.90;;;20.70;99.90;;;20.19;100.00;97964.06;5045821;28;20052;-68
2023/07/07 07:16:34;;;;;;;3.38;1.83;;;20.80;99.90;;;20.48;100.00;97964.50;5060840;28;20505;-68
2023/07/07 07:19:04;;;;;;;4.82;1.60;;;20.90;99.90;;;20.73;100.00;97965.22;5045110;28;20052;-69
2023/07/07 07:21:31;;;;;;;5.47;1.80;;;21.10;99.90;;;21.23;100.00;97965.72;5043885;28;20132;-69
2023/07/07 07:24:35;;;;;;;5.40;2.08;;;21.30;99.90;;;21.16;100.00;97958.38;5049575;28;20049;-69
2023/07/07 07:27:09;;;;;;;4.55;1.60;;;21.60;99.90;;;21.37;100.00;97967.25;5044899;28;20048;-69
2023/07/07 07:29:36;;;;;;;3.90;2.05;;;21.70;99.90;;;21.34;100.00;97970.09;5044497;28;20072;-69
2023/07/07 07:33:24;;;;;;;4.47;1.77;;;21.70;99.90;;;21.08;100.00;97974.84;5044573;28;20049;-69
2023/07/07 07:36:06;;;;;;;5.90;1.58;;;21.90;99.90;;;21.37;100.00;97967.25;4945847;29;20575;-69
2023/07/07 07:39:00;;;;;;;4.95;1.67;;;21.90;99.90;;;21.68;100.00;97973.53;4982643;28;20513;-69
2023/07/07 07:41:49;;;;;;;7.43;2.05;;;22.00;99.90;;;21.98;100.00;97974.59;5044784;28;20045;-69
2023/07/07 07:44:32;;;;;;;6.10;1.77;;;22.10;99.90;;;21.63;100.00;97969.59;5045664;28;20552;-68
2023/07/07 07:46:59;;;;;;;7.70;1.60;;;22.10;99.90;;;21.86;100.00;97967.69;5044374;28;20080;-69
2023/07/07 07:49:34;;;;;;;6.32;1.88;;;22.20;99.90;;;22.11;100.00;97969.16;5047030;28;20099;-69
2023/07/07 07:52:29;;;;;;;4.60;1.85;;;22.40;99.90;;;22.02;100.00;97965.47;5040257;28;20099;-69
2023/07/07 07:54:56;;;;;;;3.70;1.50;;;22.60;99.90;;;22.16;100.00;97966.13;5041888;28;20107;-70
2023/07/07 07:57:38;;;;;;;4.75;1.92;;;22.70;99.80;;;22.64;100.00;97957.66;5044286;28;20510;-69
2023/07/07 08:00:12;;;;;;;4.15;1.67;;;22.80;99.90;;;22.59;100.00;97960.69;5042478;28;20088;-69
2023/07/07 08:03:10;;;;;;;3.63;1.52;;;22.90;99.90;;;22.46;100.00;97966.19;5026730;28;20045;-69
2023/07/07 08:05:37;;;;;;;5.63;1.80;;;23.10;99.10;;;22.89;100.00;97959.84;5036994;28;20140;-69
2023/07/07 08:08:16;;;;;;;4.20;1.60;;;23.10;99.90;;;23.06;100.00;97953.13;5042866;28;20056;-69
2023/07/07 08:10:44;;;;;;;6.78;1.80;;;23.30;99.30;;;23.20;100.00;97949.28;5041366;28;20064;-69
2023/07/07 08:13:24;;;;;;;3.90;1.80;;;23.50;99.50;;;23.45;100.00;97955.03;5044265;28;20140;-69
2023/07/07 08:16:10;;;;;;;5.85;1.80;;;23.60;99.10;;;23.61;100.00;97957.16;5012988;28;20037;-69
2023/07/07 08:18:58;;;;;;;4.65;1.55;;;23.90;98.60;;;23.36;100.00;97952.22;5044472;28;20132;-69
2023/07/07 08:22:05;;;;;;;4.38;2.05;;;24.00;98.10;;;23.67;100.00;97948.63;5046111;28;20045;-69
2023/07/07 08:25:13;;;;;;;5.47;2.20;;;24.00;97.30;;;23.57;100.00;97952.09;5038399;28;20067;-69
2023/07/07 08:27:40;;;;;;;3.65;1.60;;;24.10;96.90;;;23.92;100.00;97948.09;5046521;28;20158;-69
2023/07/07 08:30:27;;;;;;;3.90;1.83;;;24.30;97.60;;;23.94;100.00;97951.44;5042113;28;20110;-69
2023/07/07 08:33:20;;;;;;;4.07;1.77;;;24.50;96.60;;;24.15;100.00;97950.44;5023104;28;20056;-69
2023/07/07 08:36:29;;;;;;;6.18;1.80;;;24.50;95.90;;;24.38;100.00;97945.66;5044497;28;20087;-69
2023/07/07 08:40:03;;;;;;;4.57;1.60;;;24.60;94.70;;;24.69;100.00;97943.66;5045267;28;20056;-70
2023/07/07 08:42:39;;;;;;;3.67;1.60;;;24.90;94.50;;;24.93;100.00;97947.59;5006461;28;20042;-69
2023/07/07 08:46:21;;;;;;;3.33;1.55;;;25.00;93.90;;;26.18;100.00;97944.25;4910631;29;20580;-69
2023/07/07 08:49:51;;;;;;;5.35;1.48;;;25.20;94.10;;;26.86;100.00;97939.03;4890210;29;20733;-69
2023/07/07 08:52:40;;;;;;;4.75;1.65;;;25.70;94.00;;;26.98;100.00;97939.59;4840959;29;20085;-70
2023/07/07 08:56:30;;;;;;;3.13;1.58;;;26.00;93.40;;;27.28;93.84;97940.91;4810010;29;20057;-70
2023/07/07 08:59:37;;;;;;;4.18;1.67;;;26.50;90.90;;;27.21;89.54;97939.03;4937277;28;20136;-70
2023/07/07 09:07:18;;;;;;;3.78;1.40;;;27.30;86.20;;;28.85;84.47;97928.38;5005419;28;20061;-70
2023/07/07 09:10:13;;;;;;;3.00;1.50;;;28.20;86.80;;;28.38;78.48;97929.16;5005070;28;20144;-70
2023/07/07 09:13:12;;;;;;;5.25;1.60;;;28.90;81.60;;;27.94;78.21;97925.84;5002362;28;20134;-70
2023/07/07 09:16:09;;;;;;;4.13;1.35;;;29.30;79.40;;;29.30;77.13;97921.50;4987013;28;20053;-70
2023/07/07 09:19:00;;;;;;;3.22;1.60;;;29.50;79.70;;;29.43;75.99;97913.75;5002867;28;20056;-70
2023/07/07 09:26:08;;;;;;;4.30;1.75;;;30.90;77.80;;;29.56;68.47;97915.81;4964119;28;20092;-70
2023/07/07 09:29:03;;;;;;;3.90;1.60;;;31.20;72.20;;;28.97;64.85;97909.13;4947008;29;20439;-70
2023/07/07 09:31:43;;;;;;;3.35;1.77;;;31.20;68.60;;;29.39;55.60;97915.94;4943519;29;20102;-70
2023/07/07 09:34:18;;;;;;;3.33;1.92;;;31.70;62.90;;;29.21;54.39;97915.38;4968830;28;20038;-70
2023/07/07 09:37:34;;;;;;;3.15;1.80;;;31.60;61.80;;;29.76;58.08;97918.88;4952093;28;20054;-70
2023/07/07 09:48:57;;;;;;;4.22;2.00;;;32.20;63.10;;;30.53;54.91;97901.81;4885137;28;20516;-69
2023/07/07 09:51:48;;;;;;;3.58;2.17;;;32.20;61.40;;;30.69;53.15;97901.63;4984091;28;20139;-68
2023/07/07 09:54:17;;;;;;;4.60;2.60;;;32.40;60.60;;;31.19;53.24;97900.00;5035185;28;20516;-69
2023/07/07 09:56:58;;;;;;;4.15;2.72;;;32.40;61.40;;;31.83;52.13;97893.88;5042950;28;20432;-69
2023/07/07 09:59:35;;;;;;;3.75;2.30;;;32.70;60.30;;;32.62;52.31;97898.22;5046246;28;20505;-69
2023/07/07 10:02:17;;;;;;;4.93;2.67;;;33.00;60.50;;;31.71;51.58;97894.59;5042250;28;20514;-69
2023/07/07 10:04:54;;;;;;;5.57;2.58;;;33.30;59.40;;;31.75;50.58;97894.03;5044218;28;20455;-69
2023/07/07 10:07:24;;;;;;;3.67;2.15;;;33.10;58.50;;;31.19;53.24;97894.66;5041463;28;20049;-70
2023/07/07 10:09:51;;;;;;;4.35;2.33;;;32.70;60.00;;;32.88;52.40;97886.75;5044031;28;20053;-70
2023/07/07 10:12:18;;;;;;;8.70;2.80;;;33.30;60.10;;;32.46;52.72;97887.78;5039662;28;20073;-70
2023/07/07 10:14:57;;;;;;;3.70;2.60;;;33.80;60.00;;;32.25;52.01;97888.66;5047368;28;20044;-68
2023/07/07 10:18:00;;;;;;;4.07;2.38;;;33.80;59.30;;;32.97;52.09;97886.59;5049537;28;20040;-69
2023/07/07 10:20:27;;;;;;;4.00;2.55;;;33.80;59.50;;;32.85;55.11;97879.09;5048146;28;20061;-69
2023/07/07 10:22:54;;;;;;;4.32;2.45;;;33.60;61.60;;;32.78;56.30;97885.50;5046137;28;20525;-69
2023/07/07 10:25:22;;;;;;;3.58;2.10;;;33.70;61.90;;;33.08;57.31;97878.00;5048794;28;20132;-69
2023/07/07 10:27:53;;;;;;;3.40;1.92;;;33.60;61.90;;;32.45;54.72;97881.53;5046626;28;20114;-69
2023/07/07 10:30:21;;;;;;;7.32;2.53;;;34.10;61.10;;;32.13;55.56;97882.16;5047863;28;20076;-69
2023/07/07 10:32:51;;;;;;;6.43;2.53;;;33.80;60.90;;;31.75;55.14;97882.44;5039782;28;20049;-69
2023/07/07 10:35:20;;;;;;;5.13;2.15;;;33.60;60.20;;;32.84;55.68;97874.75;5048167;28;20052;-69
2023/07/07 10:37:47;;;;;;;4.63;2.40;;;33.10;61.50;;;31.88;54.80;97883.38;5046776;28;20379;-69
2023/07/07 10:40:25;;;;;;;7.90;2.40;;;33.20;60.30;;;33.43;54.67;97885.94;5046963;28;20132;-68
2023/07/07 10:42:57;;;;;;;6.63;2.60;;;33.20;62.30;;;33.45;54.00;97890.09;5046551;28;20473;-69
2023/07/07 10:45:25;;;;;;;3.88;2.08;;;33.70;60.50;;;33.09;53.36;97885.00;5047440;28;20524;-68
2023/07/07 10:47:52;;;;;;;3.97;2.28;;;33.70;60.40;;;33.88;54.00;97895.13;5032100;28;20490;-68
2023/07/07 10:50:25;;;;;;;6.70;2.70;;;33.90;61.00;;;31.73;56.55;97873.78;5046769;28;20438;-70
2023/07/07 10:53:09;;;;;;;5.13;2.95;;;33.20;60.90;;;33.01;56.37;97877.94;5045615;28;20084;-69
2023/07/07 10:56:08;;;;;;;4.93;2.17;;;33.30;61.50;;;33.50;56.35;97879.53;5042950;28;20129;-69
2023/07/07 10:59:10;;;;;;;5.63;2.40;;;33.60;61.60;;;33.82;56.21;97876.28;5047059;28;20584;-69
2023/07/07 11:01:51;;;;;;;5.15;2.42;;;33.90;61.40;;;33.80;54.17;97875.66;5047268;28;20053;-70
2023/07/07 11:04:57;;;;;;;4.30;2.77;;;34.10;61.00;;;34.68;53.07;97865.44;5040151;28;20136;-70
2023/07/07 11:07:39;;;;;;;7.32;2.40;;;34.20;60.90;;;34.67;55.58;97866.50;5044915;28;20467;-69
2023/07/07 11:10:43;;;;;;;5.72;3.42;;;34.50;61.70;;;33.51;55.82;97862.38;5038997;28;20100;-69
2023/07/07 11:13:23;;;;;;;5.07;3.50;;;34.10;62.30;;;32.89;55.49;97871.44;5039861;28;20077;-70
2023/07/07 11:16:14;;;;;;;6.63;4.00;;;33.00;61.80;;;32.78;54.60;97858.63;5046568;28;20063;-70
2023/07/07 11:18:47;;;;;;;;;;;32.90;61.70;;;34.01;56.98;97864.69;5045422;28;20045;-70
2023/07/07 11:21:24;;;;;;;5.70;3.85;;;33.60;62.70;;;32.04;57.12;97863.50;5044990;28;19929;-70
2023/07/07 11:24:12;;;;;;;10.13;4.03;;;32.20;62.30;;;32.39;56.12;97855.50;5045049;28;20046;-70
2023/07/07 11:27:34;;;;;;;7.28;3.42;;;31.00;62.10;;;33.77;58.16;97854.53;5039895;28;20049;-69
2023/07/07 11:30:20;;;;;;;8.23;3.70;;;32.00;65.40;;;32.99;57.17;97842.34;5046548;28;20791;-69
2023/07/07 11:32:59;;;;;;;5.53;3.90;;;32.30;63.10;;;32.74;58.07;97850.09;5039034;28;20124;-69
2023/07/07 11:35:44;;;;;;;4.97;3.20;;;32.60;63.10;;;32.79;54.92;97853.03;5045439;28;20048;-69
2023/07/07 11:38:52;;;;;;;7.90;4.22;;;33.40;61.20;;;35.61;57.67;97847.94;5059292;28;20051;-70
2023/07/07 11:41:42;;;;;;;6.20;4.35;;;33.80;63.80;;;33.79;55.48;97847.91;5045004;28;20080;-69
2023/07/07 11:44:20;;;;;;;4.88;3.60;;;33.90;60.70;;;35.70;56.73;97848.53;5045034;28;20053;-71
2023/07/07 11:47:18;;;;;;;7.22;4.78;;;34.20;64.20;;;36.27;51.91;97838.50;5038959;28;20103;-71
2023/07/07 11:50:16;;;;;;;6.05;3.92;;;34.70;60.80;;;36.31;52.67;97842.41;5046786;28;20080;-70
2023/07/07 11:53:31;;;;;;;6.10;4.22;;;35.20;61.50;;;36.02;51.35;97843.91;5046339;28;20049;-70
2023/07/07 11:56:29;;;;;;;7.22;4.25;;;35.40;60.00;;;34.89;51.32;97834.63;5046125;28;20109;-70
2023/07/07 11:59:22;;;;;;;6.53;4.47;;;34.40;59.50;;;35.31;52.70;97837.78;5046545;28;20077;-71
2023/07/07 12:01:52;;;;;;;6.65;4.03;;;34.30;61.70;;;36.20;52.96;97841.25;5042496;28;20064;-70
2023/07/07 12:04:31;;;;;;;;;;;34.90;61.00;;;36.32;50.95;97838.63;5044956;28;20088;-69
2023/07/07 12:07:32;;;;;;;5.15;3.80;;;35.30;59.80;;;35.23;50.14;97834.50;5023115;28;20011;-69